createdAt,value
2019-02-26T12:14:42.704Z,19.10
2019-02-26T12:17:11.325Z,19.10
2019-02-26T12:19:41.323Z,19.10
2019-02-26T12:22:11.139Z,19.10
2019-02-26T12:24:41.037Z,19.00
2019-02-26T12:27:16.205Z,19.00
2019-02-26T12:29:45.297Z,19.00
2019-02-26T12:32:14.161Z,19.00
2019-02-26T12:34:45.440Z,19.00
2019-02-26T12:37:16.092Z,19.00
2019-02-26T12:39:47.450Z,19.00
2019-02-26T12:42:18.725Z,19.00
2019-02-26T12:44:49.309Z,19.00
2019-02-26T12:47:21.774Z,19.00
2019-02-26T12:49:50.638Z,19.00
2019-02-26T12:52:21.926Z,19.00
2019-02-26T12:54:54.753Z,19.00
2019-02-26T12:57:26.949Z,19.00
2019-02-26T12:59:55.446Z,19.00
2019-02-26T13:02:25.887Z,19.00
2019-02-26T13:04:55.903Z,19.00
2019-02-26T13:07:25.871Z,19.00
2019-02-26T13:10:00.504Z,19.00
2019-02-26T13:12:29.634Z,19.00
2019-02-26T13:15:03.126Z,19.00
2019-02-26T13:17:32.275Z,19.00
2019-02-26T13:20:05.999Z,19.00
2019-02-26T13:22:33.963Z,19.00
2019-02-26T13:25:08.183Z,19.00
2019-02-26T13:27:38.782Z,19.00
2019-02-26T13:30:20.118Z,19.00
2019-02-26T13:32:56.299Z,19.00
2019-02-26T13:35:22.597Z,19.00
2019-02-26T13:37:55.953Z,19.00
2019-02-26T13:40:25.887Z,19.00
2019-02-26T13:45:27.925Z,19.00
2019-02-26T13:48:01.205Z,19.00
2019-02-26T13:50:38.965Z,19.00
2019-02-26T13:53:08.162Z,19.10
2019-02-26T13:55:38.048Z,19.10
2019-02-26T13:58:11.810Z,19.00
2019-02-26T14:00:39.575Z,19.10
2019-02-26T14:03:09.810Z,19.00
2019-02-26T14:05:39.717Z,19.10
2019-02-26T14:08:09.709Z,19.10
2019-02-26T14:10:39.558Z,19.10
2019-02-26T14:13:09.658Z,19.10
2019-02-26T14:15:39.748Z,19.10
2019-02-26T14:18:09.636Z,19.10
2019-02-26T14:20:40.515Z,19.10
2019-02-26T14:23:10.637Z,19.10
2019-02-26T14:25:40.525Z,19.10
2019-02-26T14:28:10.412Z,19.10
2019-02-26T14:30:40.235Z,19.10
2019-02-26T14:33:10.139Z,19.10
2019-02-26T14:35:41.005Z,19.10
2019-02-26T14:38:11.276Z,19.10
2019-02-26T14:40:41.332Z,19.10
2019-02-26T14:43:11.214Z,19.10
2019-02-26T14:45:41.170Z,19.10
2019-02-26T14:48:11.548Z,19.10
2019-02-26T14:50:41.431Z,19.10
2019-02-26T14:53:11.320Z,19.10
2019-02-26T14:55:41.607Z,19.10
2019-02-26T14:58:11.494Z,19.10
2019-02-26T15:00:41.489Z,19.10
2019-02-26T15:03:11.750Z,19.10
2019-02-26T15:05:41.567Z,19.10
2019-02-26T15:08:11.476Z,19.10
2019-02-26T15:10:41.911Z,19.10
2019-02-26T15:13:12.124Z,19.10
2019-02-26T15:15:42.120Z,19.20
2019-02-26T15:18:12.167Z,19.10
2019-02-26T15:20:41.989Z,19.10
2019-02-26T15:23:12.190Z,19.10
2019-02-26T15:25:42.068Z,19.10
2019-02-26T15:28:11.897Z,19.20
2019-02-26T15:30:41.797Z,19.10
2019-02-26T15:33:12.367Z,19.10
2019-02-26T15:35:42.329Z,19.10
2019-02-26T15:38:12.129Z,19.20
2019-02-26T15:40:42.007Z,19.20
2019-02-26T15:43:11.846Z,19.10
2019-02-26T15:45:41.748Z,19.10
2019-02-26T15:48:11.705Z,19.20
2019-02-26T15:50:41.532Z,19.10
2019-02-26T15:53:11.687Z,19.10
2019-02-26T15:55:41.848Z,19.10
2019-02-26T15:58:11.730Z,19.10
2019-02-26T16:00:41.777Z,19.10
2019-02-26T16:03:12.054Z,19.10
2019-02-26T16:05:42.181Z,19.10
2019-02-26T16:08:12.016Z,19.10
2019-02-26T16:10:41.835Z,19.10
2019-02-26T16:13:12.130Z,19.10
2019-02-26T16:15:42.322Z,19.10
2019-02-26T16:18:13.806Z,19.10
2019-02-26T16:20:43.705Z,19.20
2019-02-26T16:23:13.676Z,19.20
2019-02-26T16:25:43.502Z,19.10
2019-02-26T16:28:13.380Z,19.20
2019-02-26T16:30:43.198Z,19.10
2019-02-26T16:33:13.759Z,19.10
2019-02-26T16:35:44.412Z,19.10
2019-02-26T16:38:14.823Z,19.10
2019-02-26T16:40:44.781Z,19.10
2019-02-26T16:43:14.808Z,19.10
2019-02-26T16:45:46.243Z,19.20
2019-02-26T16:48:16.071Z,19.20
2019-02-26T16:50:46.177Z,19.20
2019-02-26T16:53:16.366Z,19.20
2019-02-26T16:55:48.763Z,19.20
2019-02-26T16:58:18.482Z,19.10
2019-02-26T17:00:48.881Z,19.20
2019-02-26T17:03:19.416Z,19.20
2019-02-26T17:05:49.310Z,19.20
2019-02-26T17:08:19.188Z,19.20
2019-02-26T17:10:50.134Z,19.20
2019-02-26T17:13:19.962Z,19.20
2019-02-26T17:15:49.844Z,19.10
2019-02-26T17:18:20.163Z,19.20
2019-02-26T17:20:51.515Z,19.20
2019-02-26T17:23:21.414Z,19.20
2019-02-26T17:25:51.284Z,19.20
2019-02-26T17:28:22.535Z,19.20
2019-02-26T17:30:52.477Z,19.20
2019-02-26T17:33:22.381Z,19.20
2019-02-26T17:35:53.012Z,19.20
2019-02-26T17:38:22.843Z,19.20
2019-02-26T17:40:52.722Z,19.20
2019-02-26T17:43:22.901Z,19.20
2019-02-26T17:45:54.433Z,19.20
2019-02-26T17:48:24.765Z,19.20
2019-02-26T17:50:55.189Z,19.20
2019-02-26T17:53:27.679Z,19.20
2019-02-26T17:55:58.055Z,19.30
2019-02-26T17:58:28.206Z,19.30
2019-02-26T18:00:59.347Z,19.30
2019-02-26T18:03:29.296Z,19.40
2019-02-26T18:05:59.748Z,19.40
2019-02-26T18:08:29.872Z,19.40
2019-02-26T18:10:59.799Z,19.40
2019-02-26T18:13:29.682Z,19.30
2019-02-26T18:16:08.755Z,19.40
2019-02-26T18:18:34.244Z,19.40
2019-02-26T18:21:05.819Z,19.30
2019-02-26T18:23:37.519Z,19.30
2019-02-26T18:26:05.914Z,19.30
2019-02-26T18:28:36.806Z,19.30
2019-02-26T18:31:07.229Z,19.30
2019-02-26T18:33:37.511Z,19.30
2019-02-26T18:36:07.707Z,19.30
2019-02-26T18:38:38.016Z,19.40
2019-02-26T18:41:08.981Z,19.40
2019-02-26T18:43:39.056Z,19.40
2019-02-26T18:46:09.396Z,19.40
2019-02-26T18:48:39.304Z,19.40
2019-02-26T18:51:09.201Z,19.40
2019-02-26T18:53:39.553Z,19.40
2019-02-26T18:56:09.877Z,19.40
2019-02-26T18:58:39.831Z,19.40
2019-02-26T19:01:09.811Z,19.40
2019-02-26T19:03:41.616Z,19.40
2019-02-26T19:06:11.590Z,19.40
2019-02-26T19:08:41.526Z,19.40
2019-02-26T19:11:16.517Z,19.40
2019-02-26T19:13:42.990Z,19.40
2019-02-26T19:16:13.283Z,19.40
2019-02-26T19:18:43.166Z,19.40
2019-02-26T19:21:14.064Z,19.40
2019-02-26T19:23:43.964Z,19.40
2019-02-26T19:26:14.407Z,19.40
2019-02-26T19:28:44.315Z,19.40
2019-02-26T19:31:14.291Z,19.40
2019-02-26T19:33:44.250Z,19.40
2019-02-26T19:36:14.071Z,19.40
2019-02-26T19:38:44.360Z,19.50
2019-02-26T19:41:15.823Z,19.50
2019-02-26T19:43:46.034Z,19.50
2019-02-26T19:46:17.740Z,19.50
2019-02-26T19:48:47.718Z,19.50
2019-02-26T19:51:21.931Z,19.50
2019-02-26T19:53:49.134Z,19.50
2019-02-26T19:56:23.193Z,19.50
2019-02-26T19:58:50.983Z,19.50
2019-02-26T20:01:20.804Z,19.50
2019-02-26T20:03:50.733Z,19.50
2019-02-26T20:06:23.258Z,19.50
2019-02-26T20:08:52.199Z,19.50
2019-02-26T20:11:22.848Z,19.50
2019-02-26T20:13:53.275Z,19.50
2019-02-26T20:16:23.117Z,19.50
2019-02-26T20:18:53.014Z,19.60
2019-02-26T20:21:22.965Z,19.60
2019-02-26T20:23:53.524Z,19.60
2019-02-26T20:26:23.498Z,19.60
2019-02-26T20:28:53.379Z,19.60
2019-02-26T20:31:23.366Z,19.60
2019-02-26T20:33:53.658Z,19.70
2019-02-26T20:36:23.961Z,19.70
2019-02-26T20:38:54.206Z,19.70
2019-02-26T20:41:24.164Z,19.70
2019-02-26T20:43:54.045Z,19.70
2019-02-26T20:46:25.217Z,19.70
2019-02-26T20:48:55.705Z,19.70
2019-02-26T20:51:27.130Z,19.70
2019-02-26T20:53:57.177Z,19.70
2019-02-26T20:56:28.541Z,19.70
2019-02-26T20:58:58.972Z,19.70
2019-02-26T21:01:29.683Z,19.70
2019-02-26T21:04:00.814Z,19.70
2019-02-26T21:06:30.696Z,19.70
2019-02-26T21:09:04.790Z,19.80
2019-02-26T21:11:34.101Z,19.80
2019-02-26T21:14:07.623Z,19.80
2019-02-26T21:16:36.066Z,19.80
2019-02-26T21:19:06.148Z,19.80
2019-02-26T21:21:36.039Z,19.80
2019-02-26T21:24:06.367Z,19.80
2019-02-26T21:26:36.330Z,19.80
2019-02-26T21:29:06.432Z,19.80
2019-02-26T21:31:36.526Z,19.80
2019-02-26T21:34:06.686Z,19.80
2019-02-26T21:36:36.499Z,19.80
2019-02-26T21:39:10.883Z,19.80
2019-02-26T21:41:39.160Z,19.80
2019-02-26T21:44:09.504Z,19.80
2019-02-26T21:46:39.429Z,19.80
2019-02-26T21:49:09.939Z,19.80
2019-02-26T21:51:40.578Z,19.80
